Time;durP1;ratioP1;P1;durP2;ratioP2;P2;SDS_P1;SDS_P2;PMS_P1;PMS_P2;Temp;Humidity;BMP_temperature;BMP_pressure;BME280_temperature;BME280_humidity;BME280_pressure;Samples;Min_cycle;Max_cycle;Signal;HPM_P1;HPM_P2
2023/02/22 00:01:21;;;;;;;10.73;9.80;;;;;;;1.80;100.00;97050.72;5068165;28;20226;-71
2023/02/22 00:03:51;;;;;;;12.23;11.07;;;;;;;1.78;100.00;97053.44;5043785;28;20447;-71
2023/02/22 00:06:23;;;;;;;14.47;12.17;;;;;;;1.69;100.00;97047.22;5065650;28;20208;-69
2023/02/22 00:08:52;;;;;;;16.23;12.23;;;;;;;1.52;100.00;97045.22;5063575;28;20879;-70
2023/02/22 00:11:20;;;;;;;13.57;11.93;;;;;;;1.50;100.00;97049.75;5047240;28;20597;-70
2023/02/22 00:13:49;;;;;;;12.37;11.20;;;;;;;1.44;100.00;97054.56;5060309;28;20268;-70
2023/02/22 00:16:18;;;;;;;13.50;12.37;;;;;;;1.33;100.00;97040.75;5059839;28;20665;-69
2023/02/22 00:18:46;;;;;;;13.50;12.20;;;;;;;1.27;100.00;97049.91;5037627;28;20856;-70
2023/02/22 00:21:15;;;;;;;14.93;12.50;;;;;;;1.43;100.00;97041.59;5064230;28;20713;-70
2023/02/22 00:23:46;;;;;;;12.50;11.40;;;;;;;1.52;100.00;97048.69;5061674;28;20725;-71
2023/02/22 00:26:17;;;;;;;12.83;11.53;;;;;;;1.50;100.00;97047.97;5067488;28;20206;-70
2023/02/22 00:28:46;;;;;;;14.20;12.80;;;;;;;1.58;100.00;97049.94;5046408;28;20285;-70
2023/02/22 00:31:14;;;;;;;13.37;12.03;;;;;;;1.65;100.00;97050.25;5064564;28;20229;-68
2023/02/22 00:33:42;;;;;;;13.20;11.90;;;;;;;1.64;100.00;97043.38;5018072;28;20414;-69
2023/02/22 00:36:12;;;;;;;14.20;12.30;;;;;;;1.68;100.00;97050.78;5067579;28;20595;-69
2023/02/22 00:38:40;;;;;;;19.33;11.90;;;;;;;1.66;100.00;97044.88;5066995;28;20237;-70
2023/02/22 00:41:10;;;;;;;27.03;12.97;;;;;;;1.72;100.00;97047.00;5074165;28;20218;-69
2023/02/22 00:43:37;;;;;;;21.00;13.70;;;;;;;1.59;100.00;97046.34;5051581;28;20230;-70
2023/02/22 00:46:05;;;;;;;17.40;12.03;;;;;;;1.56;100.00;97030.97;5073641;28;20614;-70
2023/02/22 00:48:33;;;;;;;13.50;11.13;;;;;;;1.51;100.00;97041.78;5023101;28;20213;-69
2023/02/22 00:51:00;;;;;;;12.27;11.07;;;;;;;1.40;100.00;97034.88;5071224;28;20220;-71
2023/02/22 00:53:28;;;;;;;10.73;9.83;;;;;;;1.38;100.00;97035.94;5068298;28;20226;-69
2023/02/22 00:55:56;;;;;;;9.73;9.03;;;;;;;1.35;100.00;97028.38;5068466;28;20360;-70
2023/02/22 00:58:25;;;;;;;10.23;9.43;;;;;;;1.34;100.00;97031.97;5065599;28;20198;-69
2023/02/22 01:00:53;;;;;;;9.33;8.40;;;;;;;1.27;100.00;97027.25;5059343;28;20218;-69
2023/02/22 01:03:21;;;;;;;10.23;9.20;;;;;;;1.25;100.00;97031.78;5021097;28;20248;-68
2023/02/22 01:05:49;;;;;;;9.13;8.33;;;;;;;1.19;100.00;97023.63;5068589;28;20818;-68
2023/02/22 01:08:17;;;;;;;9.83;8.93;;;;;;;1.13;100.00;97015.34;5068066;28;20292;-69
2023/02/22 01:10:46;;;;;;;8.87;8.17;;;;;;;1.18;100.00;97016.75;5064833;28;20506;-69
2023/02/22 01:13:13;;;;;;;12.63;11.43;;;;;;;0.95;100.00;97001.25;5066632;28;20808;-71
2023/02/22 01:15:44;;;;;;;10.73;9.83;;;;;;;0.93;100.00;97003.97;5048853;28;20202;-71
2023/02/22 01:18:16;;;;;;;9.73;8.83;;;;;;;0.93;100.00;97009.19;5022189;28;21498;-70
2023/02/22 01:20:46;;;;;;;10.17;9.27;;;;;;;0.93;100.00;97001.38;5064750;28;20221;-69
2023/02/22 01:23:17;;;;;;;8.40;7.80;;;;;;;1.03;100.00;97009.25;5061315;28;20311;-70
2023/02/22 01:25:45;;;;;;;9.57;8.63;;;;;;;0.96;100.00;97001.13;5066615;28;20546;-68
2023/02/22 01:28:14;;;;;;;9.07;8.37;;;;;;;0.98;100.00;97003.59;5071083;28;20248;-71
2023/02/22 01:30:43;;;;;;;10.20;9.30;;;;;;;0.81;100.00;97000.59;5049145;28;20198;-68
2023/02/22 01:33:11;;;;;;;9.67;8.87;;;;;;;0.87;100.00;96999.28;5067971;28;20508;-72
2023/02/22 01:35:40;;;;;;;10.43;9.50;;;;;;;0.83;100.00;97001.31;5028976;28;20286;-70
2023/02/22 01:38:08;;;;;;;10.03;9.10;;;;;;;0.86;100.00;96998.44;5067075;28;20481;-72
2023/02/22 01:40:38;;;;;;;8.83;8.13;;;;;;;0.92;100.00;96997.09;5072600;28;20340;-71
2023/02/22 01:43:19;;;;;;;8.87;8.17;;;;;;;0.90;100.00;96993.81;5069493;28;20717;-71
2023/02/22 01:45:54;;;;;;;9.37;8.40;;;;;;;0.85;100.00;96990.75;5041422;28;20867;-69
2023/02/22 01:48:26;;;;;;;8.77;7.97;;;;;;;0.77;100.00;96987.97;5069528;28;20683;-70
2023/02/22 01:50:56;;;;;;;9.17;8.30;;;;;;;0.78;100.00;97000.06;5022906;28;20214;-70
2023/02/22 01:53:26;;;;;;;9.83;8.93;;;;;;;0.73;100.00;96989.97;5065524;28;20214;-71
2023/02/22 01:55:56;;;;;;;9.43;8.67;;;;;;;0.77;100.00;96994.00;5064248;28;20310;-69
2023/02/22 01:58:24;;;;;;;9.13;8.43;;;;;;;0.77;100.00;96991.38;5069538;28;20203;-69
2023/02/22 02:00:54;;;;;;;9.70;8.80;;;;;;;0.74;100.00;96993.41;5047957;28;20666;-70
2023/02/22 02:03:26;;;;;;;8.80;8.10;;;;;;;0.77;100.00;96982.75;5064462;28;20251;-71
2023/02/22 02:05:58;;;;;;;9.53;8.67;;;;;;;0.85;100.00;96988.97;5023379;28;20597;-69
2023/02/22 02:08:34;;;;;;;10.63;9.63;;;;;;;0.88;100.00;96992.25;5063583;28;20199;-69
2023/02/22 02:11:04;;;;;;;9.80;8.90;;;;;;;0.85;100.00;96977.72;5068501;28;20494;-69
2023/02/22 02:13:35;;;;;;;10.60;8.67;;;;;;;0.89;100.00;96980.88;5065851;28;20969;-70
2023/02/22 02:16:04;;;;;;;13.23;10.07;;;;;;;0.81;100.00;96982.34;5068472;28;20592;-69
2023/02/22 02:18:32;;;;;;;11.37;10.17;;;;;;;0.72;100.00;96970.06;5048366;28;20594;-71
2023/02/22 02:21:36;;;;;;;14.47;9.23;;;;;;;0.74;100.00;96982.97;5021719;28;20230;-71
2023/02/22 02:24:21;;;;;;;10.67;9.57;;;;;;;0.69;100.00;96971.13;5067627;28;20645;-71
2023/02/22 02:27:10;;;;;;;10.27;9.03;;;;;;;0.79;100.00;96984.25;5069537;28;20505;-70
2023/02/22 02:30:18;;;;;;;10.20;9.10;;;;;;;0.92;100.00;96980.63;5066761;28;20294;-71
2023/02/22 02:32:52;;;;;;;10.37;9.37;;;;;;;0.95;100.00;96980.38;5045195;28;20323;-71
2023/02/22 02:35:28;;;;;;;9.60;8.80;;;;;;;0.92;100.00;96978.84;5066054;28;20202;-70
2023/02/22 02:37:57;;;;;;;10.17;9.10;;;;;;;0.85;100.00;96975.09;5016878;28;20211;-70
2023/02/22 02:40:30;;;;;;;9.97;8.97;;;;;;;0.80;100.00;96969.44;5063156;28;20203;-69
2023/02/22 02:43:00;;;;;;;10.60;9.50;;;;;;;0.81;100.00;96966.69;5069497;28;20250;-70
2023/02/22 02:45:30;;;;;;;10.27;9.27;;;;;;;0.85;100.00;96968.09;5061561;28;20403;-71
2023/02/22 02:48:01;;;;;;;10.80;9.83;;;;;;;0.85;100.00;96964.66;5064460;28;20202;-71
2023/02/22 02:50:33;;;;;;;9.90;9.00;;;;;;;0.87;100.00;96962.75;5045124;28;20725;-71
2023/02/22 02:53:04;;;;;;;14.53;10.50;;;;;;;0.90;100.00;96954.66;5019670;28;20525;-70
2023/02/22 02:55:35;;;;;;;8.80;8.10;;;;;;;0.87;100.00;96957.53;5066716;28;20406;-71
2023/02/22 02:58:04;;;;;;;19.37;11.10;;;;;;;0.66;100.00;96950.53;5068120;28;20194;-71
2023/02/22 03:00:38;;;;;;;8.00;7.40;;;;;;;0.63;100.00;96945.56;5065451;28;20406;-70
2023/02/22 03:03:22;;;;;;;11.73;9.07;;;;;;;0.55;100.00;96954.03;5066955;28;20261;-71
2023/02/22 03:06:05;;;;;;;8.97;7.80;;;;;;;0.59;100.00;96954.63;5044974;28;20221;-71
2023/02/22 03:08:41;;;;;;;7.70;6.90;;;;;;;0.59;100.00;96953.81;5018187;28;20202;-71
2023/02/22 03:11:14;;;;;;;6.87;6.43;;;;;;;0.58;100.00;96952.97;5066939;28;20576;-69
2023/02/22 03:13:51;;;;;;;6.73;6.27;;;;;;;0.58;100.00;96950.34;5066046;28;20332;-71
2023/02/22 03:16:23;;;;;;;6.80;6.30;;;;;;;0.57;100.00;96941.72;5063292;28;20216;-69
2023/02/22 03:18:55;;;;;;;6.60;6.20;;;;;;;0.52;100.00;96943.03;5064824;28;20750;-72
2023/02/22 03:21:26;;;;;;;7.00;6.50;;;;;;;0.63;100.00;96931.72;5042540;28;20213;-70
2023/02/22 03:24:00;;;;;;;6.40;6.00;;;;;;;0.56;100.00;96929.59;5018246;28;20229;-70
2023/02/22 03:26:33;;;;;;;6.70;6.20;;;;;;;0.56;100.00;96939.22;5064626;28;20800;-71
2023/02/22 03:29:03;;;;;;;7.03;6.47;;;;;;;0.55;100.00;96945.38;5060909;28;20292;-71
2023/02/22 03:31:36;;;;;;;8.20;7.53;;;;;;;0.57;100.00;96939.09;5068690;28;20210;-70
2023/02/22 03:34:08;;;;;;;8.30;7.50;;;;;;;0.53;100.00;96937.69;5063409;28;20691;-69
2023/02/22 03:36:39;;;;;;;9.07;8.37;;;;;;;0.46;100.00;96927.91;5023231;28;21403;-71
2023/02/22 03:39:09;;;;;;;9.50;8.60;;;;;;;0.46;100.00;96928.72;5019895;28;21803;-69
2023/02/22 03:41:38;;;;;;;8.47;7.70;;;;;;;0.41;100.00;96926.50;5060774;28;20471;-69
2023/02/22 03:44:08;;;;;;;8.40;7.60;;;;;;;0.45;100.00;96932.28;5062525;28;20579;-70
2023/02/22 03:46:38;;;;;;;12.07;8.50;;;;;;;0.45;100.00;96941.91;5060924;28;20456;-71
2023/02/22 03:49:12;;;;;;;8.80;8.03;;;;;;;0.50;100.00;96934.53;5067567;28;20230;-69
2023/02/22 03:51:39;;;;;;;9.70;8.80;;;;;;;0.46;100.00;96927.91;5046544;28;20587;-71
2023/02/22 03:54:15;;;;;;;14.20;9.13;;;;;;;0.49;100.00;96933.69;5015911;28;20260;-70
2023/02/22 03:56:46;;;;;;;25.27;10.67;;;;;;;0.44;100.00;96928.03;5007348;28;20258;-72
2023/02/22 03:59:13;;;;;;;8.47;7.77;;;;;;;0.40;100.00;96935.28;5061572;28;20728;-67
2023/02/22 04:01:41;;;;;;;8.53;7.73;;;;;;;0.47;100.00;96930.38;5045775;28;20210;-71
2023/02/22 04:04:10;;;;;;;9.25;8.35;;;;;;;0.44;100.00;96935.84;5057130;28;20454;-70
2023/02/22 04:06:38;;;;;;;11.07;10.27;;;;;;;0.46;100.00;96926.13;5043530;28;21569;-72
2023/02/22 04:09:07;;;;;;;8.93;8.17;;;;;;;0.50;100.00;96932.72;5046239;28;20207;-70
2023/02/22 04:11:35;;;;;;;8.30;7.50;;;;;;;0.36;100.00;96928.66;5044366;28;20456;-71
2023/02/22 04:14:02;;;;;;;11.40;10.30;;;;;;;0.27;100.00;96922.44;5057270;28;20441;-70
2023/02/22 04:16:30;;;;;;;9.40;8.60;;;;;;;0.34;100.00;96920.13;5035043;28;20704;-71
2023/02/22 04:18:58;;;;;;;10.80;7.97;;;;;;;0.24;100.00;96924.44;5056551;28;20218;-68
2023/02/22 04:21:27;;;;;;;7.80;7.20;;;;;;;0.19;100.00;96919.63;5058374;28;20414;-68
2023/02/22 04:23:55;;;;;;;9.37;8.43;;;;;;;0.18;100.00;96923.16;5039726;28;20238;-69
2023/02/22 04:26:22;;;;;;;8.07;7.47;;;;;;;0.26;100.00;96918.16;5016182;28;20214;-67
2023/02/22 04:28:50;;;;;;;8.53;7.83;;;;;;;0.03;100.00;96930.47;5065017;28;20206;-69
2023/02/22 04:31:17;;;;;;;8.47;7.87;;;;;;;0.03;100.00;96920.06;5062438;28;20198;-68
2023/02/22 04:33:46;;;;;;;9.47;8.67;;;;;;;-0.04;100.00;96924.06;5041791;28;20269;-70
2023/02/22 04:36:14;;;;;;;10.20;9.40;;;;;;;-0.06;100.00;96924.22;5055942;28;20456;-69
2023/02/22 04:38:43;;;;;;;9.27;8.57;;;;;;;-0.15;100.00;96922.34;5040488;28;20397;-71
2023/02/22 04:41:11;;;;;;;8.37;7.77;;;;;;;-0.25;100.00;96918.81;5031509;28;20709;-69
2023/02/22 04:43:39;;;;;;;11.33;10.43;;;;;;;-0.31;100.00;96920.97;5055656;28;20689;-71
2023/02/22 04:46:07;;;;;;;7.90;7.20;;;;;;;-0.45;100.00;96922.03;5057951;28;20601;-69
2023/02/22 04:48:35;;;;;;;8.40;7.60;;;;;;;-0.47;100.00;96921.34;5047806;28;22445;-68
2023/02/22 04:51:02;;;;;;;7.77;7.27;;;;;;;-0.40;100.00;96926.06;5060254;28;20609;-68
2023/02/22 04:53:30;;;;;;;8.07;7.47;;;;;;;-0.42;100.00;96928.81;5036173;28;20237;-71
2023/02/22 04:55:59;;;;;;;8.60;7.90;;;;;;;-0.23;100.00;96919.50;5059126;28;20206;-69
2023/02/22 04:58:26;;;;;;;8.10;7.40;;;;;;;-0.17;100.00;96929.47;5014752;28;20433;-69
2023/02/22 05:00:54;;;;;;;7.73;7.23;;;;;;;-0.08;100.00;96925.28;5057003;28;20198;-70
2023/02/22 05:03:21;;;;;;;7.93;7.33;;;;;;;-0.11;100.00;96925.53;5058391;28;20229;-71
2023/02/22 05:05:49;;;;;;;7.87;7.17;;;;;;;-0.02;100.00;96930.81;5025215;28;20523;-69
2023/02/22 05:08:17;;;;;;;8.53;7.80;;;;;;;0.01;100.00;96928.94;5059367;28;20229;-72
2023/02/22 05:10:44;;;;;;;8.53;7.83;;;;;;;0.01;100.00;96926.31;5019842;28;20761;-72
2023/02/22 05:13:13;;;;;;;8.50;7.90;;;;;;;0.01;100.00;96926.31;5014681;28;20424;-70
2023/02/22 05:15:41;;;;;;;8.83;7.90;;;;;;;-0.01;100.00;96921.22;5062774;28;20198;-70
2023/02/22 05:18:09;;;;;;;9.47;8.67;;;;;;;0.10;100.00;96922.97;5055946;28;20194;-70
2023/02/22 05:20:37;;;;;;;10.07;9.27;;;;;;;0.03;100.00;96912.22;5047235;28;20221;-69
2023/02/22 05:23:05;;;;;;;12.77;11.57;;;;;;;0.01;100.00;96919.34;5052918;28;20458;-70
2023/02/22 05:25:33;;;;;;;9.30;8.60;;;;;;;-0.02;100.00;96923.00;5048877;28;20206;-72
2023/02/22 05:28:03;;;;;;;37.17;12.10;;;;;;;-0.14;100.00;96918.81;5013571;28;20215;-70
2023/02/22 05:30:35;;;;;;;10.77;9.77;;;;;;;-0.20;100.00;96917.50;5069254;28;20209;-72
2023/02/22 05:33:02;;;;;;;11.32;10.45;;;;;;;-0.16;100.00;96912.88;5060850;28;20684;-68
2023/02/22 05:35:30;;;;;;;9.73;9.03;;;;;;;-0.12;100.00;96929.91;5067794;28;20563;-69
2023/02/22 05:38:00;;;;;;;11.00;9.83;;;;;;;-0.16;100.00;96926.72;5049362;28;20206;-69
2023/02/22 05:40:29;;;;;;;21.52;10.07;;;;;;;-0.21;100.00;96923.66;4994776;28;20441;-70
2023/02/22 05:42:57;;;;;;;16.10;9.73;;;;;;;-0.28;100.00;96917.28;5046415;28;20346;-71
2023/02/22 05:45:26;;;;;;;9.17;8.10;;;;;;;-0.24;100.00;96923.06;5000238;28;20210;-69
2023/02/22 05:47:56;;;;;;;9.07;8.17;;;;;;;-0.35;100.00;96910.94;5060284;28;20290;-70
2023/02/22 05:50:24;;;;;;;8.73;7.93;;;;;;;-0.23;100.00;96922.13;5064467;28;20220;-69
2023/02/22 05:52:52;;;;;;;7.93;7.43;;;;;;;-0.15;100.00;96920.56;5048838;28;20727;-70
2023/02/22 05:55:21;;;;;;;8.80;8.10;;;;;;;-0.11;100.00;96918.56;5062999;28;20214;-70
2023/02/22 05:57:49;;;;;;;8.17;7.57;;;;;;;-0.07;100.00;96916.50;5046483;28;20286;-70
2023/02/22 06:00:22;;;;;;;7.30;6.80;;;;;;;-0.10;100.00;96915.00;5012846;28;20214;-71
2023/02/22 06:02:55;;;;;;;9.32;8.43;;;;;;;-0.08;100.00;96914.84;5055048;28;21085;-69
2023/02/22 06:05:23;;;;;;;8.17;7.57;;;;;;;-0.04;100.00;96914.50;5063671;28;20788;-72
2023/02/22 06:07:51;;;;;;;8.50;7.83;;;;;;;-0.04;100.00;96906.69;5048100;28;20229;-71
2023/02/22 06:10:18;;;;;;;9.48;8.77;;;;;;;-0.06;100.00;96898.16;5065646;28;20496;-71
2023/02/22 06:12:46;;;;;;;10.00;9.10;;;;;;;-0.06;100.00;96894.72;5045307;28;20297;-70
2023/02/22 06:15:14;;;;;;;9.70;8.77;;;;;;;-0.02;100.00;96898.72;5019258;28;22014;-72
2023/02/22 06:17:42;;;;;;;10.13;9.33;;;;;;;0.00;100.00;96902.06;5039826;28;20218;-72
2023/02/22 06:20:13;;;;;;;11.43;10.30;;;;;;;-0.09;100.00;96906.22;5061693;28;20649;-71
2023/02/22 06:22:41;;;;;;;8.80;8.13;;;;;;;0.04;100.00;96918.25;5021423;28;20208;-70
2023/02/22 06:25:10;;;;;;;9.97;9.17;;;;;;;0.02;100.00;96913.19;5067449;28;20226;-71
2023/02/22 06:27:38;;;;;;;9.80;9.00;;;;;;;-0.04;100.00;96904.06;5051766;28;20787;-70
2023/02/22 06:30:07;;;;;;;7.27;6.70;;;;;;;0.03;100.00;96929.63;5020632;28;20385;-71
2023/02/22 06:32:34;;;;;;;8.63;8.03;;;;;;;0.05;100.00;96919.91;5047182;28;20507;-70
2023/02/22 06:35:02;;;;;;;7.87;7.17;;;;;;;0.10;100.00;96921.19;5065428;28;20361;-73
2023/02/22 06:37:31;;;;;;;8.37;7.67;;;;;;;0.15;100.00;96905.16;5065364;28;20196;-72
2023/02/22 06:39:58;;;;;;;12.37;11.27;;;;;;;0.12;100.00;96921.06;5051038;28;20430;-71
2023/02/22 06:42:31;;;;;;;27.73;11.93;;;;;;;0.05;100.00;96909.47;5058354;28;20232;-72
2023/02/22 06:44:59;;;;;;;10.30;9.30;;;;;;;0.05;100.00;96907.72;5054596;28;20863;-74
2023/02/22 06:47:27;;;;;;;9.37;8.57;;;;;;;0.02;100.00;96886.28;5019006;28;20207;-70
2023/02/22 06:49:55;;;;;;;9.00;8.23;;;;;;;0.01;100.00;96905.47;5053695;28;20536;-72
2023/02/22 06:52:23;;;;;;;8.87;8.13;;;;;;;-0.11;100.00;96917.72;5061321;28;20201;-71
2023/02/22 06:54:52;;;;;;;9.40;8.70;;;;;;;-0.05;100.00;96928.47;5048292;28;20214;-71
2023/02/22 06:57:20;;;;;;;8.53;7.83;;;;;;;-0.18;100.00;96920.00;5065639;28;20272;-72
2023/02/22 06:59:47;;;;;;;9.17;7.20;;;;;;;-0.18;100.00;96925.22;5045932;28;20422;-72
2023/02/22 07:02:15;;;;;;;7.37;6.83;;;;;;;-0.05;100.00;96938.06;5022195;28;20344;-72
2023/02/22 07:04:45;;;;;;;8.10;7.50;;;;;;;0.05;100.00;96940.75;5046448;28;20234;-72
2023/02/22 07:07:12;;;;;;;8.37;7.53;;;;;;;0.11;100.00;96940.25;5062687;28;20202;-70
2023/02/22 07:09:40;;;;;;;12.50;7.87;;;;;;;0.15;100.00;96928.63;5055799;28;20203;-71
2023/02/22 07:12:09;;;;;;;8.60;7.93;;;;;;;0.16;100.00;96927.66;5063908;28;20209;-71
2023/02/22 07:14:36;;;;;;;18.83;10.32;;;;;;;0.27;100.00;96929.41;5043009;28;20626;-70
2023/02/22 07:17:04;;;;;;;8.10;7.50;;;;;;;0.28;100.00;96931.91;5022766;28;20284;-70
2023/02/22 07:19:32;;;;;;;6.87;6.47;;;;;;;0.42;100.00;96927.31;5047653;28;20214;-67
2023/02/22 07:21:59;;;;;;;9.93;9.02;;;;;;;0.48;100.00;96932.03;5058785;28;20577;-68
2023/02/22 07:24:27;;;;;;;11.17;7.87;;;;;;;0.39;100.00;96932.78;5061811;28;20226;-68
2023/02/22 07:26:55;;;;;;;13.17;8.03;;;;;;;0.29;100.00;96924.91;5042448;28;20421;-69
2023/02/22 07:29:24;;;;;;;8.70;7.87;;;;;;;0.25;100.00;96926.09;5044385;28;20206;-69
2023/02/22 07:31:52;;;;;;;9.07;8.27;;;;;;;0.46;100.00;96918.28;5060831;28;20418;-68
2023/02/22 07:34:19;;;;;;;8.03;7.43;;;;;;;0.57;100.00;96922.63;4998177;28;20210;-69
2023/02/22 07:36:47;;;;;;;9.32;8.63;;;;;;;0.61;100.00;96908.38;5062800;28;20876;-69
2023/02/22 07:39:15;;;;;;;8.50;7.67;;;;;;;0.89;100.00;96923.47;5059992;28;20491;-70
2023/02/22 07:41:42;;;;;;;8.63;7.80;;;;;;;1.00;100.00;96929.44;5050680;28;20217;-69
2023/02/22 07:44:10;;;;;;;9.40;8.60;;;;;;;0.96;100.00;96924.66;5064696;28;20217;-70
2023/02/22 07:46:39;;;;;;;26.57;11.00;;;;;;;1.03;100.00;96922.31;5044135;28;20218;-70
2023/02/22 07:49:06;;;;;;;8.93;8.23;;;;;;;1.03;100.00;96923.16;5001009;28;21135;-69
2023/02/22 07:51:34;;;;;;;9.77;8.77;;;;;;;1.08;100.00;96922.75;5062485;28;20194;-71
2023/02/22 07:54:01;;;;;;;8.90;8.20;;;;;;;1.33;100.00;96921.50;5065224;28;20365;-69
2023/02/22 07:56:29;;;;;;;9.80;8.80;;;;;;;1.51;100.00;96915.63;5048557;28;21016;-70
2023/02/22 07:58:56;;;;;;;9.63;8.83;;;;;;;1.69;100.00;96919.22;5063212;28;20195;-70
2023/02/22 08:01:24;;;;;;;13.90;11.93;;;;;;;1.78;100.00;96911.56;5039493;28;20938;-69
2023/02/22 08:03:54;;;;;;;11.13;10.00;;;;;;;1.86;100.00;96912.53;5019887;28;20230;-69
2023/02/22 08:06:24;;;;;;;11.23;10.32;;;;;;;2.08;100.00;96915.84;5040925;28;20774;-70
2023/02/22 08:08:52;;;;;;;24.80;20.07;;;;;;;1.98;100.00;96910.63;5065678;28;20233;-69
2023/02/22 08:11:19;;;;;;;28.50;21.93;;;;;;;1.94;100.00;96909.25;5044872;28;20213;-70
2023/02/22 08:13:47;;;;;;;15.27;13.70;;;;;;;2.14;100.00;96894.38;5065635;28;20575;-70
2023/02/22 08:16:15;;;;;;;9.93;9.03;;;;;;;2.17;100.00;96901.16;5041988;28;20195;-69
2023/02/22 08:18:42;;;;;;;9.83;9.00;;;;;;;2.25;100.00;96900.44;5023119;28;20225;-69
2023/02/22 08:21:11;;;;;;;16.67;12.57;;;;;;;2.23;100.00;96902.38;5041896;28;20215;-70
2023/02/22 08:23:39;;;;;;;10.95;10.07;;;;;;;2.25;100.00;96906.50;5059729;28;20448;-70
2023/02/22 08:26:07;;;;;;;11.43;10.33;;;;;;;2.41;100.00;96902.50;5061521;28;20935;-69
2023/02/22 08:28:35;;;;;;;10.30;9.47;;;;;;;2.70;100.00;96899.84;5049641;28;20839;-69
2023/02/22 08:31:05;;;;;;;10.63;9.63;;;;;;;2.58;100.00;96878.25;5060938;28;20463;-70
2023/02/22 08:33:34;;;;;;;9.53;8.63;;;;;;;2.71;100.00;96895.41;5057135;28;20227;-70
2023/02/22 08:36:02;;;;;;;8.93;8.23;;;;;;;2.85;100.00;96896.75;4996035;28;20190;-70
2023/02/22 08:38:32;;;;;;;10.80;8.50;;;;;;;2.86;100.00;96896.63;5060079;28;20776;-70
2023/02/22 08:41:00;;;;;;;8.43;7.60;;;;;;;2.85;100.00;96887.13;5061179;28;20226;-69
2023/02/22 08:43:28;;;;;;;9.90;8.97;;;;;;;3.00;100.00;96891.91;5047306;28;20340;-69
2023/02/22 08:45:56;;;;;;;10.60;9.27;;;;;;;3.04;100.00;96882.78;5061341;28;20225;-70
2023/02/22 08:48:24;;;;;;;8.97;8.27;;;;;;;3.11;100.00;96876.00;5038434;28;20392;-71
2023/02/22 08:50:52;;;;;;;8.87;8.07;;;;;;;3.22;100.00;96882.00;5021150;28;20902;-69
2023/02/22 08:53:19;;;;;;;8.20;7.40;;;;;;;3.29;100.00;96873.44;5044404;28;20241;-72
2023/02/22 08:55:49;;;;;;;7.60;7.00;;;;;;;3.55;100.00;96875.38;5060884;28;20301;-70
2023/02/22 08:58:16;;;;;;;8.60;6.97;;;;;;;3.57;100.00;96867.34;5045624;28;20230;-69
2023/02/22 09:00:44;;;;;;;8.60;7.77;;;;;;;3.41;100.00;96868.84;5067115;28;20194;-71
2023/02/22 09:03:13;;;;;;;7.03;6.53;;;;;;;3.77;100.00;96870.66;5043980;28;20451;-68
2023/02/22 09:05:41;;;;;;;9.47;7.57;;;;;;;3.89;100.00;96872.13;5028980;28;20367;-71
2023/02/22 09:08:09;;;;;;;7.63;7.07;;;;;;;3.98;100.00;96861.72;5045975;28;20221;-70
2023/02/22 09:10:37;;;;;;;6.80;6.40;;;;;;;4.05;100.00;96857.50;5069938;28;20562;-71
2023/02/22 09:13:06;;;;;;;7.63;7.03;;;;;;;4.16;100.00;96854.63;5046416;28;20225;-69
2023/02/22 09:15:35;;;;;;;7.30;6.80;;;;;;;4.45;100.00;96869.28;5058123;28;20214;-69
2023/02/22 09:18:04;;;;;;;8.93;8.17;;;;;;;4.35;100.00;96853.63;5065735;28;20214;-68
2023/02/22 09:20:33;;;;;;;8.30;7.60;;;;;;;4.38;100.00;96863.00;5013034;28;21555;-70
2023/02/22 09:23:02;;;;;;;8.37;7.77;;;;;;;4.50;100.00;96860.97;5050645;28;20301;-70
2023/02/22 09:25:30;;;;;;;9.27;8.53;;;;;;;4.74;100.00;96862.94;5066820;28;20261;-70
2023/02/22 09:27:58;;;;;;;10.07;9.27;;;;;;;5.11;100.00;96854.91;5050867;28;20211;-70
2023/02/22 09:30:30;;;;;;;9.90;9.10;;;;;;;5.22;100.00;96855.47;5046396;28;20211;-71
2023/02/22 09:33:00;;;;;;;10.43;9.63;;;;;;;5.21;100.00;96852.97;5068260;28;20224;-69
2023/02/22 09:35:29;;;;;;;11.83;10.83;;;;;;;5.00;100.00;96861.25;4994824;28;20967;-69
2023/02/22 09:37:58;;;;;;;10.60;9.70;;;;;;;5.47;100.00;96860.78;5047506;28;20217;-69
2023/02/22 09:40:28;;;;;;;11.13;10.23;;;;;;;5.60;100.00;96859.53;5064848;28;20384;-71
2023/02/22 09:43:07;;;;;;;11.70;10.73;;;;;;;5.71;100.00;96848.69;5067887;28;20229;-70
2023/02/22 09:45:39;;;;;;;13.37;12.17;;;;;;;5.75;100.00;96850.00;5044666;28;20655;-70
2023/02/22 09:48:08;;;;;;;13.40;12.20;;;;;;;5.77;100.00;96847.25;5065996;28;20234;-70
2023/02/22 09:50:49;;;;;;;13.37;12.03;;;;;;;5.87;100.00;96842.66;5028045;28;20215;-70
2023/02/22 09:53:28;;;;;;;12.97;11.90;;;;;;;6.21;100.00;96836.44;5045605;28;20312;-70
2023/02/22 09:55:59;;;;;;;11.73;10.83;;;;;;;6.51;100.00;96831.50;5068018;28;20297;-71
2023/02/22 09:58:33;;;;;;;11.07;10.27;;;;;;;6.77;100.00;96830.44;5065157;28;20203;-71
2023/02/22 10:01:13;;;;;;;11.47;10.57;;;;;;;6.62;100.00;96827.66;5047325;28;20213;-69
2023/02/22 10:03:49;;;;;;;11.37;10.53;;;;;;;6.49;100.00;96822.94;5068408;28;20222;-70
2023/02/22 10:06:22;;;;;;;10.80;9.90;;;;;;;6.76;100.00;96820.91;5019994;28;20995;-68
2023/02/22 10:08:55;;;;;;;11.70;10.80;;;;;;;6.66;100.00;96820.28;5061544;28;20205;-70
2023/02/22 10:11:42;;;;;;;10.97;10.07;;;;;;;6.84;100.00;96812.16;5044298;28;20210;-69
2023/02/22 10:14:28;;;;;;;10.30;9.30;;;;;;;7.02;100.00;96813.78;5068972;28;20875;-70
2023/02/22 10:17:02;;;;;;;11.37;10.37;;;;;;;7.13;100.00;96809.91;5047359;28;20586;-71
2023/02/22 10:19:32;;;;;;;10.20;9.50;;;;;;;7.01;100.00;96801.56;5061556;28;20411;-69
2023/02/22 10:22:17;;;;;;;10.70;9.77;;;;;;;7.26;100.00;96804.94;5021512;28;20682;-67
2023/02/22 10:24:52;;;;;;;10.40;9.50;;;;;;;7.39;100.00;96797.28;5071100;28;20214;-71
2023/02/22 10:27:22;;;;;;;9.87;9.07;;;;;;;7.44;100.00;96796.78;5055016;28;20390;-70
2023/02/22 10:29:55;;;;;;;10.40;9.50;;;;;;;7.53;100.00;96795.72;5067368;28;20195;-69
2023/02/22 10:32:30;;;;;;;9.60;8.80;;;;;;;7.36;100.00;96794.16;5046835;28;20217;-70
2023/02/22 10:34:58;;;;;;;15.30;13.77;;;;;;;7.49;100.00;96790.97;5069777;28;20198;-70
2023/02/22 10:37:28;;;;;;;10.27;9.50;;;;;;;7.60;100.00;96787.09;5015672;28;20237;-70
2023/02/22 10:40:00;;;;;;;9.07;8.37;;;;;;;7.81;100.00;96779.38;5069501;28;20202;-69
2023/02/22 10:42:31;;;;;;;8.77;8.07;;;;;;;8.01;100.00;96776.25;5056617;28;20670;-69
2023/02/22 10:44:59;;;;;;;9.00;8.10;;;;;;;8.25;100.00;96769.13;5065636;28;20202;-68
2023/02/22 10:47:29;;;;;;;9.07;8.37;;;;;;;8.30;100.00;96771.22;5050672;28;20218;-71
2023/02/22 10:49:59;;;;;;;8.70;8.00;;;;;;;8.49;100.00;96768.09;5065407;28;20201;-70
2023/02/22 10:52:28;;;;;;;7.93;7.23;;;;;;;8.35;100.00;96766.25;5021700;28;21152;-70
2023/02/22 10:54:57;;;;;;;8.80;8.20;;;;;;;8.29;100.00;96756.38;5068174;28;20202;-71
2023/02/22 10:57:42;;;;;;;8.57;7.87;;;;;;;8.35;100.00;96761.78;5066227;28;20232;-70
2023/02/22 11:00:18;;;;;;;8.93;8.23;;;;;;;8.17;100.00;96743.63;5063224;28;20311;-70
2023/02/22 11:02:53;;;;;;;8.67;7.97;;;;;;;8.20;100.00;96750.38;5046301;28;20229;-69
2023/02/22 11:05:35;;;;;;;8.83;8.03;;;;;;;8.39;100.00;96749.84;5061484;28;20300;-69
2023/02/22 11:08:26;;;;;;;8.67;8.03;;;;;;;8.71;100.00;96751.53;5048397;28;20249;-69
2023/02/22 11:10:56;;;;;;;8.07;7.40;;;;;;;9.01;100.00;96740.94;5070018;28;20783;-70
2023/02/22 11:13:25;;;;;;;7.40;6.80;;;;;;;9.33;100.00;96736.22;5054640;28;20508;-70
2023/02/22 11:15:54;;;;;;;6.90;6.40;;;;;;;9.38;100.00;96732.00;5061987;28;20579;-69
2023/02/22 11:18:26;;;;;;;6.27;5.87;;;;;;;9.49;100.00;96724.59;5046408;28;20310;-68
2023/02/22 11:21:02;;;;;;;7.47;6.60;;;;;;;9.66;100.00;96722.50;5063894;28;20760;-70
2023/02/22 11:23:30;;;;;;;7.00;6.50;;;;;;;9.92;100.00;96715.81;5061794;28;20815;-70
2023/02/22 11:26:06;;;;;;;6.40;5.90;;;;;;;10.07;99.35;96708.63;5021418;28;20229;-69
2023/02/22 11:28:34;;;;;;;6.13;5.67;;;;;;;10.33;98.23;96715.09;5041327;28;20289;-70
2023/02/22 11:31:15;;;;;;;6.20;5.80;;;;;;;10.38;96.09;96712.66;5062873;28;21190;-69
2023/02/22 11:33:53;;;;;;;6.67;6.07;;;;;;;10.35;94.66;96705.13;5050810;28;20214;-69
2023/02/22 11:36:36;;;;;;;6.47;5.97;;;;;;;10.30;94.28;96699.59;5056580;28;20538;-69
2023/02/22 11:39:10;;;;;;;7.03;5.63;;;;;;;10.23;93.28;96693.44;5045448;28;20300;-70
2023/02/22 11:41:38;;;;;;;7.63;6.63;;;;;;;10.52;92.86;96697.72;5057771;28;20642;-71